Terminal Aerodrome Forecast
Issued by NWS

Home | Current Version | Previous Version | Text Only | Print | Product List | Glossary On
Versions: 1 2 3 4 5 6 7 8 9 10 11 12 13 14 15 16 17 18 19 20
000
FTUS44 KMAF 261900 AAA
TAFFST
TAF AMD
KFST 261900Z 2619/2718 25019G28KT P6SM SCT200
     FM262100 26025G33KT P6SM SCT100 SCT200
     FM270200 26014G20KT P6SM BKN150=

USA.gov is the U.S. government's official web portal to all federal, state and local government web resources and services.